Time;durP1;ratioP1;P1;durP2;ratioP2;P2;SDS_P1;SDS_P2;PMS_P1;PMS_P2;Temp;Humidity;BMP_temperature;BMP_pressure;BME280_temperature;BME280_humidity;BME280_pressure;Samples;Min_cycle;Max_cycle;Signal;HPM_P1;HPM_P2
2022/09/15 00:02:00;;;;;;;20.62;13.15;;;;;;;12.58;100.00;98325.56;1822503;77;20962;-73
2022/09/15 00:04:29;;;;;;;19.98;13.75;;;;;;;12.62;100.00;98328.62;1821697;77;20982;-70
2022/09/15 00:07:01;;;;;;;;;;;;;;;12.63;100.00;98329.42;1825044;77;20950;-72
2022/09/15 00:09:36;;;;;;;18.77;11.55;;;;;;;12.61;100.00;98325.65;1812734;77;20161;-70
2022/09/15 00:12:11;;;;;;;16.60;11.12;;;;;;;12.59;100.00;98325.78;1820403;77;20993;-73
2022/09/15 00:14:44;;;;;;;14.60;10.95;;;;;;;12.55;100.00;98326.50;1827612;77;20976;-71
2022/09/15 00:17:14;;;;;;;19.23;11.97;;;;;;;12.53;100.00;98328.81;1821623;77;20906;-71
2022/09/15 00:19:45;;;;;;;14.28;12.28;;;;;;;12.49;100.00;98332.06;1823420;78;21075;-71
2022/09/15 00:22:19;;;;;;;15.20;11.08;;;;;;;12.48;100.00;98329.66;1825166;78;20947;-72
2022/09/15 00:24:50;;;;;;;15.98;10.95;;;;;;;12.47;100.00;98330.23;1815799;78;20899;-70
2022/09/15 00:27:21;;;;;;;12.88;11.55;;;;;;;12.47;100.00;98328.06;1807633;78;20959;-71
2022/09/15 00:29:52;;;;;;;17.65;12.63;;;;;;;12.46;100.00;98327.84;1813459;78;20998;-71
2022/09/15 00:32:25;;;;;;;16.70;12.10;;;;;;;12.46;100.00;98325.09;1811711;78;21491;-71
2022/09/15 00:34:58;;;;;;;16.62;11.73;;;;;;;12.48;100.00;98329.09;1814441;78;20975;-71
2022/09/15 00:37:25;;;;;;;15.95;10.80;;;;;;;12.49;100.00;98334.81;1811722;78;21570;-71
2022/09/15 00:39:52;;;;;;;15.72;13.28;;;;;;;12.52;100.00;98336.84;1820844;77;20991;-71
2022/09/15 00:42:22;;;;;;;16.85;13.45;;;;;;;12.52;100.00;98329.97;1805065;78;20912;-71
2022/09/15 00:44:57;;;;;;;14.35;11.83;;;;;;;12.52;100.00;98327.22;1826733;78;21765;-73
2022/09/15 00:47:37;;;;;;;12.73;11.30;;;;;;;12.52;100.00;98328.59;1788502;78;20915;-74
2022/09/15 00:50:12;;;;;;;14.18;12.47;;;;;;;12.51;100.00;98327.57;1824097;78;20932;-74
2022/09/15 00:52:54;;;;;;;17.12;13.83;;;;;;;12.49;100.00;98321.05;1804826;78;20923;-74
2022/09/15 00:55:43;;;;;;;15.88;11.63;;;;;;;12.50;100.00;98320.47;1815979;78;20936;-76
2022/09/15 00:58:15;;;;;;;14.58;12.37;;;;;;;12.48;100.00;98319.45;1807753;77;21207;-74
2022/09/15 01:00:55;;;;;;;15.08;11.97;;;;;;;12.47;100.00;98312.93;1827002;77;20979;-74
2022/09/15 01:03:26;;;;;;;13.68;11.10;;;;;;;12.45;100.00;98316.62;1812363;77;20832;-73
2022/09/15 01:06:15;;;;;;;17.00;12.10;;;;;;;12.42;100.00;98312.62;1806458;77;21520;-72
2022/09/15 01:09:02;;;;;;;15.35;11.97;;;;;;;12.38;100.00;98310.36;1834813;77;21027;-71
2022/09/15 01:11:28;;;;;;;15.78;12.13;;;;;;;12.36;100.00;98307.17;1809409;77;20897;-72
2022/09/15 01:14:00;;;;;;;14.47;11.60;;;;;;;12.31;100.00;98301.94;1809669;77;20989;-72
2022/09/15 01:17:08;;;;;;;15.32;12.03;;;;;;;12.27;100.00;98291.42;1832274;77;21057;-72
2022/09/15 01:20:07;;;;;;;13.70;10.80;;;;;;;12.22;100.00;98288.95;1821556;76;20926;-72
2022/09/15 01:22:51;;;;;;;14.45;10.23;;;;;;;12.09;100.00;98284.15;1820763;76;20975;-71
2022/09/15 01:25:48;;;;;;;14.73;11.68;;;;;;;12.01;100.00;98280.20;1822604;77;21794;-71
2022/09/15 01:28:59;;;;;;;13.28;10.25;;;;;;;11.94;100.00;98280.83;1828548;77;21551;-72
2022/09/15 01:33:02;;;;;;;14.58;10.23;;;;;;;11.86;100.00;98283.17;1831262;77;20962;-71
2022/09/15 01:34:15;;;;;;;14.05;10.85;;;;;;;11.75;100.00;98277.38;1822579;77;21014;-72
2022/09/15 01:36:53;;;;;;;13.78;11.12;;;;;;;11.68;100.00;98270.31;1802259;77;21034;-75
2022/09/15 01:39:25;;;;;;;18.00;10.93;;;;;;;11.62;100.00;98267.61;1819544;77;39065;-72
2022/09/15 01:42:03;;;;;;;20.82;12.33;;;;;;;11.55;100.00;98261.34;1824661;77;21665;-72
2022/09/15 01:44:39;;;;;;;21.85;12.55;;;;;;;11.52;100.00;98259.33;1824413;77;20954;-72
2022/09/15 01:47:15;;;;;;;13.78;11.63;;;;;;;11.51;100.00;98259.11;1834852;77;20911;-72
2022/09/15 01:49:52;;;;;;;16.55;11.83;;;;;;;11.49;100.00;98266.91;1829357;77;20971;-72
2022/09/15 01:52:24;;;;;;;17.57;12.60;;;;;;;11.46;100.00;98262.69;1825820;77;21108;-72
2022/09/15 01:55:06;;;;;;;15.65;12.53;;;;;;;11.44;100.00;98259.50;1834824;77;21522;-72
2022/09/15 01:57:39;;;;;;;18.75;13.60;;;;;;;11.41;100.00;98265.13;1810978;77;20891;-71
2022/09/15 02:00:11;;;;;;;16.42;12.53;;;;;;;11.43;100.00;98275.19;1824413;77;21534;-71
2022/09/15 02:02:47;;;;;;;17.17;12.30;;;;;;;11.45;100.00;98274.83;1823271;77;21592;-71
2022/09/15 02:05:38;;;;;;;16.12;12.88;;;;;;;11.45;100.00;98269.34;1796545;78;21506;-73
2022/09/15 02:08:24;;;;;;;17.35;12.53;;;;;;;11.45;100.00;98272.09;1815154;77;21117;-73
2022/09/15 02:11:11;;;;;;;17.95;13.18;;;;;;;11.46;100.00;98269.56;1732826;81;20943;-73
2022/09/15 02:13:56;;;;;;;20.97;13.45;;;;;;;11.47;100.00;98268.41;1826728;77;20995;-73
2022/09/15 02:16:27;;;;;;;18.48;13.68;;;;;;;11.47;100.00;98258.22;1824145;77;21604;-71
2022/09/15 02:19:14;;;;;;;18.70;13.53;;;;;;;11.49;100.00;98268.86;1829382;77;21135;-71
2022/09/15 02:22:01;;;;;;;21.07;13.60;;;;;;;11.49;100.00;98264.73;1797339;77;20971;-71
2022/09/15 02:24:43;;;;;;;18.17;12.80;;;;;;;11.52;100.00;98258.53;1824554;77;20955;-70
2022/09/15 02:27:20;;;;;;;15.20;12.97;;;;;;;11.55;100.00;98259.97;1804143;77;20912;-70
2022/09/15 02:29:47;;;;;;;20.50;13.43;;;;;;;11.59;100.00;98262.23;1816308;77;21019;-70
2022/09/15 02:32:22;;;;;;;18.67;13.15;;;;;;;11.60;100.00;98256.16;1805795;77;21619;-70
2022/09/15 02:34:54;;;;;;;17.95;11.83;;;;;;;11.62;100.00;98262.11;1822688;77;20950;-70
2022/09/15 02:37:23;;;;;;;17.85;12.80;;;;;;;11.65;100.00;98266.10;1823410;77;20961;-72
2022/09/15 02:39:56;;;;;;;18.75;12.47;;;;;;;11.65;100.00;98253.16;1815956;77;21614;-72
2022/09/15 02:42:29;;;;;;;15.55;13.40;;;;;;;11.65;100.00;98247.66;1799218;78;20871;-71
2022/09/15 02:45:04;;;;;;;16.32;12.20;;;;;;;11.66;100.00;98239.63;1832904;77;21120;-71
2022/09/15 02:47:33;;;;;;;14.38;12.53;;;;;;;11.66;100.00;98236.09;1799314;77;21529;-71
2022/09/15 02:50:05;;;;;;;18.55;13.18;;;;;;;11.67;100.00;98236.31;1825376;77;20840;-71
2022/09/15 02:52:41;;;;;;;16.80;12.58;;;;;;;11.68;100.00;98231.03;1787793;77;21455;-71
2022/09/15 02:55:12;;;;;;;15.70;12.15;;;;;;;11.69;100.00;98227.93;1796048;78;21565;-71
2022/09/15 02:57:43;;;;;;;14.30;12.80;;;;;;;11.70;100.00;98230.90;1812531;77;21135;-72
2022/09/15 03:00:16;;;;;;;15.55;12.63;;;;;;;11.70;100.00;98235.59;1816608;77;20911;-72
2022/09/15 03:02:48;;;;;;;18.85;13.28;;;;;;;11.71;100.00;98239.95;1832685;77;20943;-71
2022/09/15 03:05:18;;;;;;;15.38;12.58;;;;;;;11.73;100.00;98234.31;1825080;77;21298;-72
2022/09/15 03:08:01;;;;;;;14.40;12.05;;;;;;;11.75;100.00;98236.13;1812326;77;20891;-71
2022/09/15 03:10:32;;;;;;;16.15;11.73;;;;;;;11.76;100.00;98225.94;1814464;77;21167;-72
2022/09/15 03:13:01;;;;;;;16.45;11.28;;;;;;;11.76;100.00;98219.06;1825215;77;21062;-72
2022/09/15 03:15:29;;;;;;;27.48;15.65;;;;;;;11.76;100.00;98203.36;1824464;76;21200;-72
2022/09/15 03:18:00;;;;;;;25.35;15.45;;;;;;;11.79;100.00;98181.27;1796099;78;20965;-72
2022/09/15 03:20:32;;;;;;;24.05;14.85;;;;;;;11.81;100.00;98177.58;1830135;77;20936;-72
2022/09/15 03:23:02;;;;;;;22.27;14.80;;;;;;;11.83;100.00;98179.40;1837275;77;21803;-72
2022/09/15 03:25:35;;;;;;;21.25;13.43;;;;;;;11.85;100.00;98189.47;1788093;78;21526;-72
2022/09/15 03:28:08;;;;;;;22.70;13.75;;;;;;;11.86;100.00;98191.05;1820797;77;21427;-74
2022/09/15 03:30:39;;;;;;;22.17;13.38;;;;;;;11.85;100.00;98188.09;1834896;77;20869;-73
2022/09/15 03:33:07;;;;;;;20.75;13.93;;;;;;;11.85;100.00;98193.02;1787818;77;21493;-73
2022/09/15 03:35:38;;;;;;;20.68;12.55;;;;;;;11.85;100.00;98198.52;1810095;77;21083;-73
2022/09/15 03:38:07;;;;;;;15.68;12.10;;;;;;;11.89;100.00;98209.02;1821905;77;21028;-71
2022/09/15 03:40:36;;;;;;;15.90;10.60;;;;;;;11.89;100.00;98199.39;1820848;77;20954;-73
2022/09/15 03:43:06;;;;;;;18.62;12.75;;;;;;;11.89;100.00;98193.09;1802571;77;21497;-73
2022/09/15 03:45:40;;;;;;;29.37;19.12;;;;;;;11.86;100.00;98194.61;1814963;77;20966;-73
2022/09/15 03:48:11;;;;;;;23.87;16.93;;;;;;;11.87;100.00;98199.53;1787717;78;21001;-73
2022/09/15 03:50:41;;;;;;;23.85;16.55;;;;;;;11.90;100.00;98202.36;1802393;77;20861;-72
2022/09/15 03:53:08;;;;;;;26.33;15.32;;;;;;;11.93;100.00;98211.85;1824737;77;20834;-71
2022/09/15 03:55:37;;;;;;;23.73;15.58;;;;;;;11.96;100.00;98218.59;1787426;78;20890;-71
2022/09/15 03:58:07;;;;;;;24.35;15.40;;;;;;;11.99;100.00;98222.00;1831484;77;21391;-71
2022/09/15 04:00:34;;;;;;;20.52;14.85;;;;;;;12.01;100.00;98222.45;1819293;77;21783;-71
2022/09/15 04:03:05;;;;;;;21.82;15.70;;;;;;;12.03;100.00;98214.06;1809835;78;21074;-71
2022/09/15 04:05:34;;;;;;;;;;;;;;;12.04;100.00;98215.66;1823649;77;23289;-70
2022/09/15 04:08:05;;;;;;;17.65;11.50;;;;;;;12.05;100.00;98209.00;1824752;77;20076;-71
2022/09/15 04:10:37;;;;;;;18.57;11.97;;;;;;;12.05;100.00;98202.70;1820979;77;20954;-73
2022/09/15 04:13:05;;;;;;;17.45;11.63;;;;;;;12.07;100.00;98209.44;1827703;77;21934;-71
2022/09/15 04:15:34;;;;;;;17.55;12.50;;;;;;;12.12;100.00;98212.49;1829072;77;20923;-71
2022/09/15 04:18:08;;;;;;;20.08;11.60;;;;;;;12.19;100.00;98211.25;1823927;77;20919;-81
2022/09/15 04:20:42;;;;;;;13.78;11.68;;;;;;;12.25;100.00;98213.95;1826530;77;20936;-77
2022/09/15 04:23:09;;;;;;;15.53;12.05;;;;;;;12.33;100.00;98213.53;1816914;77;20985;-73
2022/09/15 04:25:35;;;;;;;18.70;11.45;;;;;;;12.38;100.00;98219.55;1819597;77;21515;-73
2022/09/15 04:28:02;;;;;;;21.75;11.68;;;;;;;12.42;100.00;98219.05;1812837;77;21018;-75
2022/09/15 04:30:35;;;;;;;14.15;11.65;;;;;;;12.47;100.00;98222.90;1812132;77;20820;-85
2022/09/15 04:33:09;;;;;;;22.60;12.40;;;;;;;12.52;100.00;98218.48;1819819;77;20970;-75
2022/09/15 04:35:52;;;;;;;17.07;11.13;;;;;;;12.57;100.00;98209.14;1795412;78;20997;-76
2022/09/15 04:38:21;;;;;;;15.80;10.88;;;;;;;12.59;100.00;98201.33;1822571;77;21334;-73
2022/09/15 04:40:54;;;;;;;13.20;11.43;;;;;;;12.63;100.00;98197.27;1800150;79;20984;-83
2022/09/15 04:43:31;;;;;;;15.58;12.40;;;;;;;12.66;100.00;98203.43;1816734;76;20832;-87
2022/09/15 04:45:59;;;;;;;22.67;12.13;;;;;;;12.70;100.00;98206.48;1812516;78;20959;-83
2022/09/15 04:48:27;;;;;;;18.98;11.95;;;;;;;12.74;100.00;98208.69;1825301;77;20993;-87
2022/09/15 04:51:05;;;;;;;18.52;11.88;;;;;;;12.80;100.00;98211.95;1794634;77;21455;-80
2022/09/15 04:53:34;;;;;;;16.42;12.07;;;;;;;12.82;100.00;98206.30;1829060;77;20860;-85
2022/09/15 04:56:15;;;;;;;16.95;11.90;;;;;;;12.87;100.00;98194.20;1819836;77;21494;-84
2022/09/15 04:58:57;;;;;;;20.32;11.73;;;;;;;12.91;100.00;98188.19;1819040;77;20875;-84
2022/09/15 05:01:27;;;;;;;17.85;11.80;;;;;;;12.97;100.00;98183.17;1813028;76;21031;-83
2022/09/15 05:03:58;;;;;;;20.48;12.35;;;;;;;13.00;100.00;98172.23;1829667;77;21831;-76
2022/09/15 05:06:26;;;;;;;15.50;11.85;;;;;;;13.04;100.00;98178.59;1837166;76;21397;-77
2022/09/15 05:08:58;;;;;;;12.30;10.25;;;;;;;13.08;100.00;98165.69;1829475;77;20862;-76
2022/09/15 05:11:27;;;;;;;17.77;11.30;;;;;;;13.12;100.00;98163.80;1827535;77;20953;-85
2022/09/15 05:13:54;;;;;;;23.27;11.60;;;;;;;13.20;100.00;98157.28;1845807;77;21029;-75
2022/09/15 05:16:27;;;;;;;27.00;11.70;;;;;;;13.24;100.00;98168.38;1825138;76;20956;-78
2022/09/15 05:18:58;;;;;;;;;;;;;;;13.28;100.00;98160.17;1838557;76;21681;-77
2022/09/15 05:21:27;;;;;;;21.17;14.68;;;;;;;13.32;100.00;98155.48;1830416;77;20080;-77
2022/09/15 05:23:54;;;;;;;20.48;13.88;;;;;;;13.33;100.00;98146.05;1817974;77;20911;-76
2022/09/15 05:26:24;;;;;;;16.27;11.45;;;;;;;13.36;100.00;98154.38;1815181;77;21455;-75
2022/09/15 05:28:56;;;;;;;19.95;12.73;;;;;;;13.43;100.00;98157.84;1840992;77;21248;-74
2022/09/15 05:31:26;;;;;;;21.85;11.48;;;;;;;13.50;100.00;98153.25;1798033;79;20864;-73
2022/09/15 05:33:56;;;;;;;17.48;11.10;;;;;;;13.55;100.00;98156.28;1796784;78;20975;-75
2022/09/15 05:36:25;;;;;;;19.82;11.70;;;;;;;13.56;100.00;98150.98;1837039;77;20971;-71
2022/09/15 05:38:57;;;;;;;17.83;9.90;;;;;;;13.59;100.00;98151.63;1819515;77;20990;-69
2022/09/15 05:41:30;;;;;;;15.20;9.78;;;;;;;13.61;100.00;98149.87;1825455;77;21170;-69
2022/09/15 05:44:02;;;;;;;24.87;11.28;;;;;;;13.63;100.00;98147.55;1818958;77;20986;-76
2022/09/15 05:46:31;;;;;;;15.48;10.40;;;;;;;13.65;100.00;98154.86;1798886;79;20933;-71
2022/09/15 05:49:04;;;;;;;14.30;10.35;;;;;;;13.67;100.00;98156.09;1812888;77;20974;-73
2022/09/15 05:51:37;;;;;;;25.70;10.58;;;;;;;13.69;100.00;98149.63;1806126;78;20928;-72
2022/09/15 05:54:11;;;;;;;13.45;10.58;;;;;;;13.74;100.00;98153.44;1833580;77;21393;-72
2022/09/15 05:56:49;;;;;;;18.05;10.98;;;;;;;13.78;100.00;98163.95;1803867;77;20986;-72
2022/09/15 05:59:18;;;;;;;13.65;10.65;;;;;;;13.83;100.00;98174.67;1831961;77;20845;-73
2022/09/15 06:01:47;;;;;;;16.87;11.30;;;;;;;13.88;100.00;98168.02;1777163;79;20928;-78
2022/09/15 06:04:16;;;;;;;13.60;10.55;;;;;;;13.93;100.00;98165.52;1821275;77;20910;-82
2022/09/15 06:06:43;;;;;;;14.78;10.75;;;;;;;13.97;100.00;98163.03;1828776;77;21230;-74
2022/09/15 06:09:14;;;;;;;16.97;10.65;;;;;;;13.98;100.00;98167.38;1758291;80;20950;-78
2022/09/15 06:11:43;;;;;;;18.37;10.93;;;;;;;14.03;100.00;98171.78;1803709;78;21502;-75
2022/09/15 06:14:13;;;;;;;15.95;11.43;;;;;;;14.07;100.00;98173.42;1789072;79;20959;-75
2022/09/15 06:16:46;;;;;;;14.47;10.63;;;;;;;14.06;100.00;98174.59;1820228;77;27009;-86
2022/09/15 06:19:13;;;;;;;16.07;10.93;;;;;;;14.05;100.00;98173.00;1807700;78;21800;-86
2022/09/15 06:21:44;;;;;;;14.63;10.38;;;;;;;14.05;100.00;98162.55;1826760;77;21046;-83
2022/09/15 06:24:12;;;;;;;16.70;11.15;;;;;;;14.05;100.00;98157.83;1818565;77;20920;-89
2022/09/15 06:26:39;;;;;;;14.58;10.72;;;;;;;14.08;100.00;98156.29;1811441;77;21027;-81
2022/09/15 06:29:11;;;;;;;55.30;31.07;;;;;;;14.11;100.00;98156.34;1809599;77;21076;-81
2022/09/15 06:31:40;;;;;;;29.37;18.42;;;;;;;14.16;100.00;98161.54;1823397;77;21290;-72
2022/09/15 06:34:10;;;;;;;32.53;21.90;;;;;;;14.21;100.00;98164.56;1815167;77;21069;-70
2022/09/15 06:36:39;;;;;;;27.35;21.00;;;;;;;14.27;100.00;98164.45;1830946;77;20936;-70
2022/09/15 06:39:16;;;;;;;25.85;20.57;;;;;;;14.33;100.00;98167.68;1820770;76;20999;-76
2022/09/15 06:41:45;;;;;;;21.97;18.90;;;;;;;14.38;100.00;98172.88;1844104;77;20934;-69
2022/09/15 06:44:13;;;;;;;30.47;19.53;;;;;;;14.41;100.00;98157.77;1828667;77;21545;-80
2022/09/15 06:46:44;;;;;;;30.02;20.88;;;;;;;14.45;100.00;98154.44;1818088;77;21482;-82
2022/09/15 06:49:18;;;;;;;29.75;20.25;;;;;;;14.50;100.00;98159.64;1829183;77;20919;-77
2022/09/15 06:51:44;;;;;;;27.60;18.85;;;;;;;14.54;100.00;98167.38;1835795;77;20938;-73
2022/09/15 06:54:15;;;;;;;26.30;18.65;;;;;;;14.57;100.00;98169.98;1811121;77;20949;-73
2022/09/15 06:56:48;;;;;;;31.93;16.77;;;;;;;14.58;100.00;98160.52;1802080;76;21017;-73
2022/09/15 06:59:17;;;;;;;16.45;13.45;;;;;;;14.61;100.00;98154.84;1840586;77;20913;-83
2022/09/15 07:01:46;;;;;;;19.10;12.95;;;;;;;14.65;100.00;98149.56;1831271;77;20889;-76
2022/09/15 07:04:17;;;;;;;19.32;13.20;;;;;;;14.71;100.00;98150.03;1838395;77;20981;-82
2022/09/15 07:06:45;;;;;;;20.70;13.70;;;;;;;14.78;100.00;98136.30;1814877;77;21473;-80
2022/09/15 07:09:20;;;;;;;22.32;15.58;;;;;;;14.88;100.00;98132.07;1833355;77;21853;-80
2022/09/15 07:11:55;;;;;;;25.68;18.60;;;;;;;14.97;100.00;98129.22;1823847;77;20898;-86
2022/09/15 07:14:23;;;;;;;;;;;;;;;15.07;100.00;98127.13;1805731;78;20968;-82
2022/09/15 07:16:54;;;;;;;28.40;19.60;;;;;;;15.19;100.00;98128.23;1803111;78;20911;-74
2022/09/15 07:19:23;;;;;;;27.82;20.50;;;;;;;15.25;100.00;98126.50;1803133;77;20971;-75
2022/09/15 07:21:53;;;;;;;24.55;16.75;;;;;;;15.27;100.00;98126.91;1842875;77;21212;-75
2022/09/15 07:24:20;;;;;;;20.62;13.72;;;;;;;15.29;100.00;98133.66;1835229;77;20952;-75
2022/09/15 07:26:47;;;;;;;19.45;16.23;;;;;;;15.32;100.00;98129.33;1820261;77;20875;-77
2022/09/15 07:29:20;;;;;;;21.77;16.23;;;;;;;15.33;100.00;98124.80;1815914;77;20991;-71
2022/09/15 07:31:54;;;;;;;23.32;16.95;;;;;;;15.36;100.00;98125.42;1830917;77;21561;-77
2022/09/15 07:34:23;;;;;;;18.75;14.35;;;;;;;15.39;100.00;98135.72;1815472;77;21477;-76
2022/09/15 07:36:50;;;;;;;14.98;11.40;;;;;;;15.38;100.00;98139.66;1831588;77;20915;-80
2022/09/15 07:39:17;;;;;;;14.75;9.50;;;;;;;15.36;100.00;98136.48;1811749;79;21415;-77
2022/09/15 07:41:43;;;;;;;11.88;9.15;;;;;;;15.35;100.00;98143.19;1810177;78;20868;-77
2022/09/15 07:44:12;;;;;;;15.53;9.73;;;;;;;15.33;100.00;98140.59;1810292;79;21065;-75
2022/09/15 07:46:39;;;;;;;12.60;9.18;;;;;;;15.32;100.00;98139.80;1813799;77;21172;-79
2022/09/15 07:49:07;;;;;;;13.75;10.48;;;;;;;15.32;100.00;98134.86;1820585;76;21005;-80
2022/09/15 07:51:34;;;;;;;14.55;11.48;;;;;;;15.32;100.00;98131.50;1835895;77;20933;-78
2022/09/15 07:54:01;;;;;;;18.42;11.43;;;;;;;15.37;100.00;98126.22;1818892;76;21062;-79
2022/09/15 07:56:28;;;;;;;10.98;9.43;;;;;;;15.40;100.00;98126.84;1828105;77;20943;-78
2022/09/15 07:58:55;;;;;;;16.05;10.53;;;;;;;15.41;100.00;98125.66;1839303;77;21204;-78
2022/09/15 08:01:27;;;;;;;14.50;9.93;;;;;;;15.43;100.00;98121.92;1777146;78;21007;-83
2022/09/15 08:03:53;;;;;;;13.75;10.55;;;;;;;15.48;100.00;98122.95;1813718;77;20947;-86
2022/09/15 08:06:22;;;;;;;12.37;10.15;;;;;;;15.50;100.00;98120.02;1807109;77;21024;-77
2022/09/15 08:08:49;;;;;;;13.28;9.65;;;;;;;15.56;100.00;98116.31;1798527;78;21165;-73
2022/09/15 08:11:24;;;;;;;19.87;13.50;;;;;;;15.60;100.00;98118.52;1823551;77;21121;-76
2022/09/15 08:13:51;;;;;;;15.18;10.85;;;;;;;15.63;100.00;98113.59;1830555;77;21024;-73
2022/09/15 08:16:21;;;;;;;15.95;10.85;;;;;;;15.65;100.00;98114.01;1835295;77;21024;-73
2022/09/15 08:18:48;;;;;;;15.13;10.15;;;;;;;15.66;100.00;98108.69;1824269;77;21409;-73
2022/09/15 08:21:19;;;;;;;14.78;9.15;;;;;;;15.64;100.00;98112.42;1835381;76;21437;-72
2022/09/15 08:23:51;;;;;;;12.10;9.38;;;;;;;15.59;100.00;98109.25;1843108;77;21218;-72
2022/09/15 08:26:20;;;;;;;12.98;9.93;;;;;;;15.56;100.00;98105.83;1821120;77;21797;-73
2022/09/15 08:28:47;;;;;;;13.50;10.05;;;;;;;15.54;100.00;98106.22;1826853;77;21504;-73
2022/09/15 08:31:18;;;;;;;10.40;7.95;;;;;;;15.52;100.00;98103.83;1822705;76;21428;-73
2022/09/15 08:33:50;;;;;;;13.38;8.70;;;;;;;15.51;100.00;98099.48;1830753;77;21353;-72
2022/09/15 08:36:17;;;;;;;15.95;9.38;;;;;;;15.52;100.00;98098.30;1825487;77;21194;-72
2022/09/15 08:38:43;;;;;;;13.28;9.20;;;;;;;15.54;100.00;98093.77;1828974;77;21026;-71
2022/09/15 08:41:27;;;;;;;15.95;11.80;;;;;;;15.56;100.00;98092.80;1834834;77;21120;-72
2022/09/15 08:44:27;;;;;;;15.00;9.35;;;;;;;15.59;100.00;98094.83;1821163;77;20972;-73
2022/09/15 08:47:17;;;;;;;18.65;11.88;;;;;;;15.59;100.00;98083.77;1808082;78;21039;-73
2022/09/15 08:50:02;;;;;;;19.95;14.07;;;;;;;15.61;100.00;98079.20;1822453;77;21218;-73
2022/09/15 08:52:45;;;;;;;23.73;14.50;;;;;;;15.64;100.00;98078.44;1817820;77;20975;-76
2022/09/15 08:55:37;;;;;;;19.67;10.68;;;;;;;15.69;100.00;98078.87;1793054;77;20982;-75
2022/09/15 08:58:04;;;;;;;12.18;8.40;;;;;;;15.73;100.00;98076.92;1826291;77;21153;-75
2022/09/15 09:00:31;;;;;;;8.55;7.47;;;;;;;15.78;100.00;98073.00;1835357;77;21051;-76
2022/09/15 09:03:15;;;;;;;11.80;6.90;;;;;;;15.81;100.00;98075.79;1829322;77;21093;-76
2022/09/15 09:06:02;;;;;;;11.85;6.47;;;;;;;15.88;100.00;98075.63;1822161;78;21574;-76
2022/09/15 09:08:55;;;;;;;11.90;8.63;;;;;;;15.97;100.00;98076.08;1819009;78;20912;-77
2022/09/15 09:11:41;;;;;;;13.60;9.13;;;;;;;16.01;100.00;98072.16;1802249;78;21486;-76
2022/09/15 09:14:58;;;;;;;14.85;8.85;;;;;;;16.07;100.00;98076.14;1810934;78;21000;-76
2022/09/15 09:18:14;;;;;;;10.35;7.00;;;;;;;16.14;100.00;98070.64;1817967;77;21616;-76
2022/09/15 09:21:08;;;;;;;10.58;7.80;;;;;;;16.23;100.00;98073.03;1828919;77;20999;-76
2022/09/15 09:23:55;;;;;;;8.88;7.60;;;;;;;16.30;100.00;98068.11;1766624;79;21059;-76
2022/09/15 09:26:22;;;;;;;11.85;8.20;;;;;;;16.33;100.00;98067.34;1785181;79;21006;-75
2022/09/15 09:28:57;;;;;;;11.95;7.85;;;;;;;16.33;100.00;98066.74;1811051;78;21047;-75
2022/09/15 09:31:25;;;;;;;11.73;6.83;;;;;;;16.34;100.00;98066.16;1776141;77;21084;-75
2022/09/15 09:33:59;;;;;;;7.03;4.85;;;;;;;16.35;100.00;98075.45;1829199;78;21083;-75
2022/09/15 09:36:30;;;;;;;8.75;5.75;;;;;;;16.35;100.00;98074.66;1771807;79;20999;-75
2022/09/15 09:38:57;;;;;;;14.13;6.58;;;;;;;16.29;100.00;98079.78;1822031;77;21020;-75
2022/09/15 09:41:34;;;;;;;6.10;5.20;;;;;;;16.25;100.00;98079.56;1822868;77;21011;-75
2022/09/15 09:43:55;;;;;;;7.50;5.55;;;;;;;16.23;100.00;98070.85;1825111;77;21155;-76
2022/09/15 09:46:21;;;;;;;7.75;5.35;;;;;;;16.18;100.00;98068.66;1825550;76;20990;-75
2022/09/15 09:49:21;;;;;;;10.45;5.83;;;;;;;16.15;100.00;98072.82;1815327;77;20876;-76
2022/09/15 09:52:01;;;;;;;11.20;6.70;;;;;;;16.13;100.00;98078.74;1817492;77;21869;-76
2022/09/15 09:54:30;;;;;;;9.13;5.87;;;;;;;16.07;100.00;98079.50;1828874;77;20939;-75
2022/09/15 09:57:29;;;;;;;10.30;5.87;;;;;;;16.02;100.00;98082.05;1827302;77;21226;-75
2022/09/15 09:59:56;;;;;;;7.55;6.40;;;;;;;15.96;100.00;98084.97;1844962;77;21050;-75
2022/09/15 10:02:26;;;;;;;7.85;6.15;;;;;;;15.88;100.00;98083.34;1837923;77;20996;-75
2022/09/15 10:05:11;;;;;;;10.38;6.12;;;;;;;15.84;100.00;98079.17;1805166;76;20928;-76
2022/09/15 10:07:44;;;;;;;9.33;6.47;;;;;;;15.85;100.00;98075.81;1821927;76;20927;-77
2022/09/15 10:10:22;;;;;;;10.18;9.03;;;;;;;15.85;100.00;98068.30;1793047;78;21100;-82
2022/09/15 10:12:56;;;;;;;12.68;9.10;;;;;;;15.90;100.00;98075.45;1820084;77;21013;-80
2022/09/15 10:15:32;;;;;;;17.25;10.18;;;;;;;15.96;100.00;98083.59;1822798;77;21553;-84
2022/09/15 10:17:59;;;;;;;11.73;8.75;;;;;;;15.99;100.00;98082.02;1843124;77;21026;-77
2022/09/15 10:20:35;;;;;;;12.85;8.88;;;;;;;16.02;100.00;98088.17;1845605;77;21140;-77
2022/09/15 10:23:07;;;;;;;12.15;7.72;;;;;;;16.04;100.00;98090.75;1842472;77;21114;-79
2022/09/15 10:25:36;;;;;;;10.80;6.62;;;;;;;16.06;100.00;98089.78;1802142;77;21043;-76
2022/09/15 10:28:15;;;;;;;7.78;6.37;;;;;;;16.12;100.00;98090.20;1817759;77;20964;-77
2022/09/15 10:31:14;;;;;;;10.05;5.90;;;;;;;16.19;100.00;98086.85;1828906;77;21506;-85
2022/09/15 10:33:46;;;;;;;7.33;5.45;;;;;;;16.29;100.00;98081.16;1827190;77;21003;-84
2022/09/15 10:36:30;;;;;;;8.45;5.53;;;;;;;16.39;100.00;98079.03;1826504;78;21149;-75
2022/09/15 10:39:11;;;;;;;5.97;5.10;;;;;;;16.47;100.00;98079.86;1827473;78;21002;-79
2022/09/15 10:41:43;;;;;;;6.03;4.78;;;;;;;16.54;100.00;98080.47;1825391;77;20924;-76
2022/09/15 10:44:33;;;;;;;8.13;4.87;;;;;;;16.58;100.00;98077.92;1838571;77;20957;-82
2022/09/15 10:47:13;;;;;;;5.53;4.78;;;;;;;16.60;100.00;98076.14;1843913;77;21345;-80
2022/09/15 10:50:06;;;;;;;5.45;4.95;;;;;;;16.62;100.00;98082.88;1843539;77;21140;-82
2022/09/15 10:52:52;;;;;;;8.10;4.97;;;;;;;16.61;100.00;98083.27;1843068;77;20978;-78
2022/09/15 10:55:37;;;;;;;6.17;4.70;;;;;;;16.58;100.00;98081.28;1785955;78;21017;-87
2022/09/15 10:58:42;;;;;;;5.87;4.62;;;;;;;16.60;100.00;98078.91;1788889;78;21071;-85
2022/09/15 11:01:35;;;;;;;7.33;5.05;;;;;;;16.61;100.00;98065.27;1741051;80;21645;-81
2022/09/15 11:04:20;;;;;;;7.85;4.65;;;;;;;16.62;100.00;98068.23;1756188;80;21050;-80
2022/09/15 11:07:14;;;;;;;6.87;4.90;;;;;;;16.64;100.00;98061.71;1794795;79;20906;-82
2022/09/15 11:10:04;;;;;;;8.18;5.37;;;;;;;16.66;100.00;98055.22;1804552;77;20927;-84
2022/09/15 11:12:52;;;;;;;5.95;5.08;;;;;;;16.70;100.00;98053.25;1806673;79;20982;-76
2022/09/15 11:15:44;;;;;;;7.17;4.90;;;;;;;16.74;100.00;98048.51;1807867;78;21031;-78
2022/09/15 11:18:43;;;;;;;12.25;5.22;;;;;;;16.77;100.00;98046.30;1813303;78;21558;-78
2022/09/15 11:21:30;;;;;;;7.87;5.70;;;;;;;16.82;100.00;98038.99;1811565;79;21494;-75
2022/09/15 11:24:29;;;;;;;7.15;5.83;;;;;;;16.84;100.00;98031.88;1810887;78;21513;-75
2022/09/15 11:27:07;;;;;;;13.40;6.00;;;;;;;16.86;100.00;98038.41;1793355;78;21010;-76
2022/09/15 11:29:53;;;;;;;10.28;6.28;;;;;;;16.85;100.00;98034.05;1716574;80;21005;-74
2022/09/15 11:32:27;;;;;;;7.45;5.85;;;;;;;16.87;100.00;98031.68;1729739;79;21333;-90
2022/09/15 11:35:25;;;;;;;11.35;5.90;;;;;;;16.88;100.00;98030.49;1751136;79;20907;-81
2022/09/15 11:38:05;;;;;;;8.50;5.75;;;;;;;16.90;100.00;98021.19;1788589;78;21024;-80
2022/09/15 11:40:40;;;;;;;10.17;5.67;;;;;;;16.96;100.00;98021.00;1782539;78;20916;-85
2022/09/15 11:43:33;;;;;;;10.05;6.20;;;;;;;17.03;100.00;98015.46;1781551;79;21037;-76
2022/09/15 11:46:04;;;;;;;11.60;5.97;;;;;;;17.11;100.00;98017.64;1774168;79;21245;-80
2022/09/15 11:48:49;;;;;;;;;;;;;;;17.12;100.00;98024.18;1801362;78;20979;-77
2022/09/15 11:51:23;;;;;;;5.92;5.33;;;;;;;17.12;100.00;98027.55;1803453;79;20153;-76